createdAt,value
2023-03-18T00:02:25.271Z,1.63
2023-03-18T00:04:53.022Z,1.72
2023-03-18T00:07:19.880Z,1.66
2023-03-18T00:09:49.462Z,1.66
2023-03-18T00:12:17.287Z,1.76
2023-03-18T00:14:43.939Z,1.69
2023-03-18T00:17:10.875Z,1.66
2023-03-18T00:19:38.190Z,1.72
2023-03-18T00:22:04.907Z,1.71
2023-03-18T00:24:32.858Z,1.70
2023-03-18T00:26:59.540Z,1.66
2023-03-18T00:29:26.186Z,1.71
2023-03-18T00:31:52.792Z,1.76
2023-03-18T00:34:21.032Z,1.69
2023-03-18T00:36:50.900Z,1.69
2023-03-18T00:39:22.790Z,1.75
2023-03-18T00:41:50.791Z,1.78
2023-03-18T00:44:17.960Z,1.73
2023-03-18T00:46:44.583Z,1.73
2023-03-18T00:49:11.270Z,1.80
2023-03-18T00:51:38.647Z,1.73
2023-03-18T00:54:08.353Z,1.80
2023-03-18T00:56:37.750Z,1.86
2023-03-18T00:59:06.131Z,1.77
2023-03-18T01:01:33.585Z,1.74
2023-03-18T01:04:01.498Z,1.69
2023-03-18T01:06:31.479Z,1.69
2023-03-18T01:09:00.291Z,1.72
2023-03-18T01:11:27.993Z,1.76
2023-03-18T01:13:57.241Z,1.70
2023-03-18T01:16:24.244Z,1.68
2023-03-18T01:18:53.807Z,1.70
2023-03-18T01:21:20.521Z,1.76
2023-03-18T01:23:47.264Z,1.73
2023-03-18T01:26:14.406Z,1.70
2023-03-18T01:28:42.337Z,1.78
2023-03-18T01:31:09.755Z,1.72
2023-03-18T01:33:36.860Z,1.69
2023-03-18T01:36:05.102Z,1.80
2023-03-18T01:38:32.259Z,1.76
2023-03-18T01:41:02.042Z,1.73
2023-03-18T01:43:34.820Z,1.68
2023-03-18T01:46:23.298Z,1.67
2023-03-18T01:48:52.131Z,1.71
2023-03-18T01:51:20.290Z,1.76
2023-03-18T01:53:51.224Z,1.72
2023-03-18T01:56:20.670Z,1.73
2023-03-18T01:58:51.237Z,1.74
2023-03-18T02:01:28.861Z,1.78
2023-03-18T02:03:56.657Z,1.74
2023-03-18T02:06:24.481Z,1.77
2023-03-18T02:08:52.316Z,1.81
2023-03-18T02:11:19.182Z,1.79
2023-03-18T02:13:46.853Z,1.78
2023-03-18T02:16:20.308Z,1.81
2023-03-18T02:18:54.854Z,1.79
2023-03-18T02:21:21.536Z,1.74
2023-03-18T02:24:28.445Z,1.76
2023-03-18T02:27:01.820Z,1.76
2023-03-18T02:29:32.574Z,1.83
2023-03-18T02:32:03.163Z,1.81
2023-03-18T02:34:30.965Z,1.82
2023-03-18T02:36:58.068Z,1.85
2023-03-18T02:39:26.434Z,1.85
2023-03-18T02:41:53.304Z,1.86
2023-03-18T02:44:21.347Z,1.93
2023-03-18T02:47:04.197Z,1.92
2023-03-18T02:49:32.801Z,1.91
2023-03-18T02:52:01.395Z,1.86
2023-03-18T02:54:30.596Z,1.86
2023-03-18T02:56:57.908Z,1.89
2023-03-18T02:59:25.603Z,1.89
2023-03-18T03:01:53.803Z,1.87
2023-03-18T03:04:23.701Z,1.92
2023-03-18T03:06:54.859Z,1.91
2023-03-18T03:09:22.700Z,1.89
2023-03-18T03:11:50.810Z,1.93
2023-03-18T03:14:19.241Z,1.93
2023-03-18T03:16:47.817Z,1.93
2023-03-18T03:19:16.858Z,1.95
2023-03-18T03:21:43.466Z,1.95
2023-03-18T03:24:10.263Z,1.98
2023-03-18T03:26:36.968Z,1.99
2023-03-18T03:29:05.120Z,2.08
2023-03-18T03:31:31.902Z,2.05
2023-03-18T03:33:58.925Z,2.06
2023-03-18T03:36:25.926Z,2.05
2023-03-18T03:38:54.209Z,2.11
2023-03-18T03:41:21.000Z,2.09
2023-03-18T03:43:47.694Z,2.08
2023-03-18T03:46:14.425Z,2.08
2023-03-18T03:48:41.350Z,2.08
2023-03-18T03:51:08.142Z,2.11
2023-03-18T03:53:36.163Z,2.14
2023-03-18T03:56:05.422Z,2.16
2023-03-18T03:58:32.026Z,2.14
2023-03-18T04:00:58.710Z,2.16
2023-03-18T04:03:25.768Z,2.21
2023-03-18T04:05:52.891Z,2.19
2023-03-18T04:08:19.929Z,2.17
2023-03-18T04:10:46.964Z,2.23
2023-03-18T04:13:13.713Z,2.24
2023-03-18T04:15:40.318Z,2.23
2023-03-18T04:18:08.317Z,2.24
2023-03-18T04:20:38.355Z,2.27
2023-03-18T04:23:06.134Z,2.23
2023-03-18T04:25:33.297Z,2.23
2023-03-18T04:28:00.013Z,2.27
2023-03-18T04:30:27.475Z,2.26
2023-03-18T04:32:56.208Z,2.23
2023-03-18T04:35:26.169Z,2.23
2023-03-18T04:37:55.603Z,2.25
2023-03-18T04:40:22.260Z,2.25
2023-03-18T04:42:49.102Z,2.28
2023-03-18T04:45:17.867Z,2.28
2023-03-18T04:47:45.319Z,2.26
2023-03-18T04:50:14.439Z,2.27
2023-03-18T04:52:42.084Z,2.23
2023-03-18T04:55:09.725Z,2.25
2023-03-18T04:57:38.499Z,2.28
2023-03-18T05:00:11.595Z,2.25
2023-03-18T05:02:39.885Z,2.19
2023-03-18T05:05:08.870Z,2.18
2023-03-18T05:07:35.593Z,2.20
2023-03-18T05:10:03.140Z,2.24
2023-03-18T05:12:29.738Z,2.25
2023-03-18T05:14:56.413Z,2.26
2023-03-18T05:17:23.066Z,2.08
2023-03-18T05:19:50.503Z,1.81
2023-03-18T05:22:19.330Z,1.68
2023-03-18T05:24:46.713Z,1.92
2023-03-18T05:27:15.326Z,1.98
2023-03-18T05:29:42.509Z,1.80
2023-03-18T05:32:10.618Z,1.78
2023-03-18T05:34:40.050Z,1.89
2023-03-18T05:37:08.754Z,1.94
2023-03-18T05:39:36.129Z,1.90
2023-03-18T05:42:05.892Z,2.07
2023-03-18T05:44:33.996Z,1.90
2023-03-18T05:47:01.661Z,1.85
2023-03-18T05:49:29.758Z,1.83
2023-03-18T05:51:57.033Z,1.86
2023-03-18T05:54:23.945Z,1.85
2023-03-18T05:56:52.494Z,1.91
2023-03-18T05:59:20.024Z,2.08
2023-03-18T06:01:47.021Z,2.00
2023-03-18T06:04:14.898Z,2.08
2023-03-18T06:06:42.163Z,2.18
2023-03-18T06:09:11.865Z,2.07
2023-03-18T06:11:40.209Z,2.20
2023-03-18T06:14:08.326Z,2.25
2023-03-18T06:16:35.804Z,2.14
2023-03-18T06:19:03.525Z,2.09
2023-03-18T06:21:33.001Z,2.06
2023-03-18T06:24:00.199Z,2.07
2023-03-18T06:26:27.709Z,2.06
2023-03-18T06:28:54.610Z,2.08
2023-03-18T06:31:22.485Z,2.07
2023-03-18T06:33:49.216Z,2.06
2023-03-18T06:36:19.422Z,2.17
2023-03-18T06:38:46.214Z,2.35
2023-03-18T06:41:13.304Z,2.20
2023-03-18T06:43:39.960Z,2.31
2023-03-18T06:46:07.800Z,2.33
2023-03-18T06:48:36.411Z,2.19
2023-03-18T06:51:05.128Z,2.19
2023-03-18T06:53:31.989Z,2.41
2023-03-18T06:55:59.109Z,2.36
2023-03-18T06:58:26.011Z,2.34
2023-03-18T07:00:52.832Z,2.40
2023-03-18T07:03:21.703Z,2.59
2023-03-18T07:05:50.049Z,2.48
2023-03-18T07:08:16.927Z,2.57
2023-03-18T07:10:43.628Z,2.57
2023-03-18T07:13:11.918Z,2.48
2023-03-18T07:15:40.347Z,2.60
2023-03-18T07:18:09.835Z,2.61
2023-03-18T07:20:40.395Z,2.53
2023-03-18T07:23:09.590Z,2.69
2023-03-18T07:25:36.731Z,2.55
2023-03-18T07:28:06.389Z,2.54
2023-03-18T07:30:34.075Z,2.69
2023-03-18T07:33:02.519Z,2.55
2023-03-18T07:35:29.287Z,2.55
2023-03-18T07:37:56.873Z,2.47
2023-03-18T07:40:24.348Z,2.47
2023-03-18T07:42:54.137Z,2.50
2023-03-18T07:45:20.888Z,2.49
2023-03-18T07:47:47.616Z,2.55
2023-03-18T07:50:14.417Z,2.74
2023-03-18T07:52:41.949Z,2.58
2023-03-18T07:55:09.271Z,2.77
2023-03-18T07:57:36.727Z,2.71
2023-03-18T08:00:08.119Z,2.59
2023-03-18T08:02:36.176Z,2.57
2023-03-18T08:05:03.692Z,2.74
2023-03-18T08:07:30.730Z,2.77
2023-03-18T08:09:57.337Z,2.72
2023-03-18T08:12:25.239Z,2.91
2023-03-18T08:14:52.239Z,2.78
2023-03-18T08:17:19.966Z,2.85
2023-03-18T08:19:50.072Z,3.06
2023-03-18T08:22:17.012Z,2.97
2023-03-18T08:24:46.659Z,3.13
2023-03-18T08:27:13.333Z,3.21
2023-03-18T08:29:41.455Z,3.09
2023-03-18T08:32:08.410Z,3.28
2023-03-18T08:34:35.942Z,3.13
2023-03-18T08:37:02.812Z,3.22
2023-03-18T08:39:29.441Z,3.45
2023-03-18T08:41:57.943Z,3.28
2023-03-18T08:44:24.733Z,3.41
2023-03-18T08:46:52.674Z,3.39
2023-03-18T08:49:19.781Z,3.22
2023-03-18T08:51:48.203Z,3.11
2023-03-18T08:54:14.828Z,3.07
2023-03-18T08:56:41.420Z,3.13
2023-03-18T08:59:08.515Z,3.28
2023-03-18T09:01:35.190Z,3.35
2023-03-18T09:04:01.875Z,3.22
2023-03-18T09:06:30.041Z,3.42
2023-03-18T09:08:58.786Z,3.26
2023-03-18T09:11:25.425Z,3.22
2023-03-18T09:13:52.350Z,3.44
2023-03-18T09:16:19.057Z,3.26
2023-03-18T09:18:48.699Z,3.15
2023-03-18T09:21:15.554Z,3.07
2023-03-18T09:23:42.172Z,3.06
2023-03-18T09:26:10.284Z,3.30
2023-03-18T09:28:37.288Z,3.23
2023-03-18T09:31:04.114Z,3.30
2023-03-18T09:33:31.869Z,3.37
2023-03-18T09:35:58.497Z,3.23
2023-03-18T09:38:25.159Z,3.43
2023-03-18T09:41:10.129Z,3.35
2023-03-18T09:43:46.982Z,3.24
2023-03-18T09:46:23.418Z,3.48
2023-03-18T09:49:16.733Z,3.28
2023-03-18T09:52:02.178Z,3.34
2023-03-18T09:54:39.684Z,3.42
2023-03-18T09:57:21.013Z,3.30
2023-03-18T09:59:54.828Z,3.52
2023-03-18T10:02:40.095Z,3.29
2023-03-18T10:05:16.823Z,3.43
2023-03-18T10:07:44.989Z,3.45
2023-03-18T10:10:40.095Z,3.34
2023-03-18T10:13:26.524Z,3.57
2023-03-18T10:15:57.052Z,3.37
2023-03-18T10:18:33.475Z,3.37
2023-03-18T10:21:10.338Z,3.60
2023-03-18T10:23:49.727Z,3.37
2023-03-18T10:26:42.385Z,3.41
2023-03-18T10:29:13.462Z,3.45
2023-03-18T10:32:06.103Z,3.43
2023-03-18T10:34:57.083Z,3.56
2023-03-18T10:37:51.796Z,3.25
2023-03-18T10:40:20.410Z,3.47
2023-03-18T10:42:50.546Z,3.25
2023-03-18T10:45:25.409Z,3.15
2023-03-18T10:48:15.980Z,3.33
2023-03-18T10:50:50.180Z,3.15
2023-03-18T10:53:23.535Z,3.40
2023-03-18T10:56:13.797Z,3.43
2023-03-18T10:58:42.250Z,3.59
2023-03-18T11:01:13.271Z,3.68
2023-03-18T11:03:50.405Z,3.50
2023-03-18T11:06:25.356Z,3.78
2023-03-18T11:09:02.942Z,3.67
2023-03-18T11:11:33.451Z,3.72
2023-03-18T11:14:02.438Z,3.91
2023-03-18T11:17:08.938Z,3.69
2023-03-18T11:19:47.897Z,3.85
2023-03-18T11:22:24.600Z,3.85
2023-03-18T11:25:13.870Z,3.83
2023-03-18T11:27:43.365Z,4.10
2023-03-18T11:30:33.927Z,3.96
2023-03-18T11:33:14.273Z,3.87
2023-03-18T11:35:52.471Z,3.78
2023-03-18T11:38:29.290Z,4.04
2023-03-18T11:41:23.358Z,3.95
2023-03-18T11:44:02.681Z,4.18
2023-03-18T11:46:47.729Z,4.12
2023-03-18T11:49:17.906Z,4.02
2023-03-18T11:52:23.134Z,4.11
2023-03-18T11:55:23.152Z,4.42
2023-03-18T11:58:31.397Z,4.35
2023-03-18T12:01:17.692Z,4.59
2023-03-18T12:04:05.930Z,4.49
2023-03-18T12:06:46.177Z,4.76
2023-03-18T12:09:30.436Z,4.69
2023-03-18T12:12:30.601Z,4.79
2023-03-18T12:15:15.715Z,4.80
2023-03-18T12:17:49.398Z,4.66
2023-03-18T12:20:29.275Z,4.89
2023-03-18T12:23:07.879Z,4.72
2023-03-18T12:26:02.639Z,4.98
2023-03-18T12:28:34.090Z,4.83
2023-03-18T12:31:17.242Z,4.99
2023-03-18T12:34:04.259Z,4.98
2023-03-18T12:36:44.481Z,4.94
2023-03-18T12:39:32.344Z,5.16
2023-03-18T12:42:09.473Z,4.96
2023-03-18T12:44:36.619Z,5.21
2023-03-18T12:47:37.447Z,5.09
2023-03-18T12:50:16.385Z,5.19
2023-03-18T12:52:44.170Z,5.24
2023-03-18T12:55:41.207Z,5.06
2023-03-18T12:58:17.758Z,5.32
2023-03-18T13:00:49.026Z,5.05
2023-03-18T13:03:36.329Z,5.20
2023-03-18T13:06:15.652Z,5.19
2023-03-18T13:08:47.198Z,5.07
2023-03-18T13:11:46.067Z,5.35
2023-03-18T13:14:37.146Z,5.17
2023-03-18T13:17:10.342Z,5.15
2023-03-18T13:19:39.136Z,5.45
2023-03-18T13:22:13.512Z,5.27
2023-03-18T13:24:40.058Z,5.25
2023-03-18T13:27:09.695Z,5.23
2023-03-18T13:30:13.207Z,5.51
2023-03-18T13:32:49.810Z,5.26
2023-03-18T13:35:23.221Z,5.19
2023-03-18T13:38:03.566Z,5.17
2023-03-18T13:40:58.086Z,5.47
2023-03-18T13:43:27.829Z,5.39
2023-03-18T13:45:57.426Z,5.32
2023-03-18T13:48:40.767Z,5.40
2023-03-18T13:51:25.389Z,5.55
2023-03-18T13:54:05.065Z,5.41
2023-03-18T13:56:45.158Z,5.70
2023-03-18T13:59:33.260Z,5.54
2023-03-18T14:02:25.645Z,5.72
2023-03-18T14:04:53.300Z,5.68
2023-03-18T14:07:22.298Z,5.54
2023-03-18T14:10:08.342Z,5.79
2023-03-18T14:12:46.099Z,5.56
2023-03-18T14:15:15.737Z,5.82
2023-03-18T14:18:03.633Z,5.78
2023-03-18T14:20:42.200Z,5.86
2023-03-18T14:23:22.266Z,5.88
2023-03-18T14:26:03.912Z,5.77
2023-03-18T14:28:45.664Z,5.95
2023-03-18T14:31:21.310Z,5.71
2023-03-18T14:34:23.922Z,5.94
2023-03-18T14:36:53.297Z,5.65
2023-03-18T14:39:49.098Z,5.77
2023-03-18T14:42:50.733Z,5.35
2023-03-18T14:45:34.510Z,5.38
2023-03-18T14:48:11.666Z,5.09
2023-03-18T14:50:47.243Z,4.84
2023-03-18T14:53:35.657Z,4.92
2023-03-18T14:56:04.123Z,4.60
2023-03-18T14:58:30.917Z,4.84
2023-03-18T15:01:13.280Z,4.82
2023-03-18T15:03:44.783Z,4.89
2023-03-18T15:06:22.976Z,4.84
2023-03-18T15:08:58.036Z,4.58
2023-03-18T15:11:26.109Z,4.81
2023-03-18T15:14:00.082Z,4.46
2023-03-18T15:16:32.941Z,4.43
2023-03-18T15:19:00.295Z,4.43
2023-03-18T15:21:32.478Z,4.14
2023-03-18T15:24:09.454Z,4.30
2023-03-18T15:26:41.412Z,4.09
2023-03-18T15:29:35.413Z,4.15
2023-03-18T15:32:17.357Z,4.07
2023-03-18T15:34:47.210Z,3.99
2023-03-18T15:37:33.778Z,4.14
2023-03-18T15:40:23.719Z,4.12
2023-03-18T15:42:50.878Z,4.53
2023-03-18T15:45:21.523Z,4.64
2023-03-18T15:47:48.599Z,4.86
2023-03-18T15:50:26.354Z,4.89
2023-03-18T15:53:03.908Z,4.66
2023-03-18T15:55:48.629Z,4.78
2023-03-18T15:58:25.000Z,4.61
2023-03-18T16:00:52.834Z,4.82
2023-03-18T16:03:25.206Z,4.45
2023-03-18T16:05:53.383Z,4.55
2023-03-18T16:08:21.156Z,4.67
2023-03-18T16:10:50.131Z,4.48
2023-03-18T16:13:23.442Z,4.66
2023-03-18T16:15:51.143Z,4.64
2023-03-18T16:18:18.248Z,4.79
2023-03-18T16:20:47.087Z,4.87
2023-03-18T16:23:17.902Z,4.81
2023-03-18T16:25:48.386Z,5.06
2023-03-18T16:28:27.733Z,4.80
2023-03-18T16:30:56.195Z,4.96
2023-03-18T16:33:24.845Z,4.89
2023-03-18T16:35:58.692Z,4.85
2023-03-18T16:38:28.043Z,5.00
2023-03-18T16:40:56.024Z,4.59
2023-03-18T16:43:29.046Z,4.61
2023-03-18T16:46:00.560Z,4.29
2023-03-18T16:48:28.426Z,4.03
2023-03-18T16:50:57.438Z,4.09
2023-03-18T16:53:27.215Z,3.33
2023-03-18T16:56:00.224Z,3.32
2023-03-18T16:58:33.894Z,3.07
2023-03-18T17:01:00.924Z,2.84
2023-03-18T17:03:29.335Z,3.00
2023-03-18T17:05:57.434Z,2.60
2023-03-18T17:08:24.492Z,2.42
2023-03-18T17:10:56.823Z,2.51
2023-03-18T17:13:27.325Z,2.26
2023-03-18T17:15:56.186Z,2.27
2023-03-18T17:18:24.619Z,2.19
2023-03-18T17:20:52.175Z,1.86
2023-03-18T17:23:21.775Z,2.02
2023-03-18T17:25:52.385Z,1.87
2023-03-18T17:28:33.000Z,1.67
2023-03-18T17:31:00.084Z,1.78
2023-03-18T17:33:32.270Z,1.36
2023-03-18T17:36:00.521Z,1.22
2023-03-18T17:38:29.214Z,1.42
2023-03-18T17:40:56.704Z,1.25
2023-03-18T17:43:27.862Z,1.16
2023-03-18T17:45:56.611Z,1.31
2023-03-18T17:48:25.676Z,1.01
2023-03-18T17:51:27.521Z,0.95
2023-03-18T17:53:59.131Z,0.93
2023-03-18T17:56:27.856Z,0.50
2023-03-18T17:58:56.305Z,0.22
2023-03-18T18:01:27.183Z,0.33
2023-03-18T18:03:59.113Z,0.43
2023-03-18T18:06:29.314Z,0.31
2023-03-18T18:09:01.004Z,0.47
2023-03-18T18:11:39.739Z,0.14
2023-03-18T18:14:21.205Z,0.19
2023-03-18T18:16:50.076Z,0.16
2023-03-18T18:19:17.193Z,-0.11
2023-03-18T18:21:46.511Z,-0.10
2023-03-18T18:24:20.493Z,0.05
2023-03-18T18:26:47.136Z,-0.07
2023-03-18T18:29:19.322Z,-0.16
2023-03-18T18:31:48.380Z,0.03
2023-03-18T18:34:16.034Z,-0.17
2023-03-18T18:36:43.128Z,-0.39
2023-03-18T18:39:10.923Z,-0.19
2023-03-18T18:41:38.917Z,-0.56
2023-03-18T18:44:07.025Z,-0.56
2023-03-18T18:46:34.967Z,-0.49
2023-03-18T18:49:01.779Z,-0.54
2023-03-18T18:51:29.082Z,-0.65
2023-03-18T18:53:56.060Z,-0.51
2023-03-18T18:56:34.279Z,-0.43
2023-03-18T18:59:03.045Z,-0.32
2023-03-18T19:01:31.080Z,-0.69
2023-03-18T19:03:57.862Z,-0.63
2023-03-18T19:06:31.363Z,-0.46
2023-03-18T19:09:04.061Z,-0.66
2023-03-18T19:11:30.762Z,-0.75
2023-03-18T19:14:20.054Z,-0.60
2023-03-18T19:16:49.340Z,-0.69
2023-03-18T19:19:20.426Z,-0.71
2023-03-18T19:21:47.927Z,-0.56
2023-03-18T19:24:28.519Z,-0.41
2023-03-18T19:26:58.511Z,-0.37
2023-03-18T19:29:27.483Z,-0.20
2023-03-18T19:31:54.916Z,-0.17
2023-03-18T19:34:22.171Z,-0.21
2023-03-18T19:36:53.135Z,-0.08
2023-03-18T19:39:22.131Z,-0.14
2023-03-18T19:41:49.080Z,-0.18
2023-03-18T19:44:21.093Z,-0.14
2023-03-18T19:46:50.778Z,-0.02
2023-03-18T19:49:24.791Z,-0.19
2023-03-18T19:51:52.222Z,-0.16
2023-03-18T19:54:33.731Z,-0.17
2023-03-18T19:57:04.249Z,-0.29
2023-03-18T19:59:39.886Z,-0.27
2023-03-18T20:02:30.551Z,-0.35
2023-03-18T20:04:59.784Z,-0.36
2023-03-18T20:07:29.437Z,-0.25
2023-03-18T20:09:56.455Z,-0.39
2023-03-18T20:12:34.777Z,-0.31
2023-03-18T20:15:01.462Z,-0.18
2023-03-18T20:17:41.567Z,-0.44
2023-03-18T20:20:14.461Z,-0.51
2023-03-18T20:22:48.207Z,-0.41
2023-03-18T20:25:28.709Z,-0.47
2023-03-18T20:27:57.167Z,-0.59
2023-03-18T20:30:25.655Z,-0.43
2023-03-18T20:32:53.631Z,-0.49
2023-03-18T20:35:21.376Z,-0.70
2023-03-18T20:37:49.747Z,-0.71
2023-03-18T20:40:23.318Z,-0.65
2023-03-18T20:42:51.707Z,-0.75
2023-03-18T20:45:19.196Z,-0.87
2023-03-18T20:47:46.685Z,-0.95
2023-03-18T20:50:19.369Z,-0.85
2023-03-18T20:52:47.876Z,-0.79
2023-03-18T20:55:26.944Z,-0.76
2023-03-18T20:57:55.690Z,-0.79
2023-03-18T21:00:26.326Z,-0.84
2023-03-18T21:02:55.210Z,-0.95
2023-03-18T21:05:22.245Z,-0.89
2023-03-18T21:07:49.087Z,-0.83
2023-03-18T21:10:21.792Z,-0.87
2023-03-18T21:12:49.803Z,-0.90
2023-03-18T21:15:27.115Z,-0.94
2023-03-18T21:17:54.312Z,-0.92
2023-03-18T21:20:27.245Z,-0.93
2023-03-18T21:22:54.716Z,-0.89
2023-03-18T21:25:24.469Z,-0.83
2023-03-18T21:27:53.006Z,-0.85
2023-03-18T21:30:22.039Z,-1.33
2023-03-18T21:32:51.818Z,-1.51
2023-03-18T21:35:24.872Z,-1.54
2023-03-18T21:37:53.651Z,-1.42
2023-03-18T21:40:25.070Z,-1.50
2023-03-18T21:42:53.359Z,-1.80
2023-03-18T21:45:22.893Z,-1.76
2023-03-18T21:47:50.942Z,-1.63
2023-03-18T21:50:24.121Z,-1.65
2023-03-18T21:52:53.346Z,-1.77
2023-03-18T21:55:21.649Z,-1.62
2023-03-18T21:57:49.186Z,-1.90
2023-03-18T22:00:19.284Z,-1.95
2023-03-18T22:02:46.852Z,-1.81
2023-03-18T22:05:22.918Z,-1.98
2023-03-18T22:07:50.868Z,-1.93
2023-03-18T22:10:23.292Z,-1.91
2023-03-18T22:12:50.527Z,-1.78
2023-03-18T22:15:24.106Z,-2.00
2023-03-18T22:17:51.778Z,-1.99
2023-03-18T22:20:20.868Z,-1.99
2023-03-18T22:22:48.691Z,-1.78
2023-03-18T22:25:29.451Z,-1.97
2023-03-18T22:27:58.037Z,-1.93
2023-03-18T22:30:29.395Z,-1.78
2023-03-18T22:32:57.042Z,-2.10
2023-03-18T22:35:26.793Z,-2.27
2023-03-18T22:37:54.316Z,-2.28
2023-03-18T22:40:28.023Z,-2.14
2023-03-18T22:43:00.413Z,-2.27
2023-03-18T22:45:34.433Z,-2.42
2023-03-18T22:48:03.205Z,-2.81
2023-03-18T22:50:33.692Z,-2.82
2023-03-18T22:53:05.626Z,-2.69
2023-03-18T22:55:35.742Z,-2.55
2023-03-18T22:58:02.899Z,-2.46
2023-03-18T23:00:37.472Z,-2.71
2023-03-18T23:03:11.441Z,-2.82
2023-03-18T23:05:39.549Z,-2.71
2023-03-18T23:08:06.595Z,-2.81
2023-03-18T23:10:33.583Z,-2.93
2023-03-18T23:13:01.494Z,-2.94
2023-03-18T23:15:29.492Z,-2.91
2023-03-18T23:17:56.088Z,-2.99
2023-03-18T23:20:22.720Z,-2.95
2023-03-18T23:22:49.312Z,-2.78
2023-03-18T23:25:17.941Z,-2.72
2023-03-18T23:27:45.482Z,-2.78
2023-03-18T23:30:14.629Z,-2.74
2023-03-18T23:32:41.734Z,-2.67
2023-03-18T23:35:10.573Z,-2.63
2023-03-18T23:37:37.172Z,-2.51
2023-03-18T23:40:05.655Z,-2.39
2023-03-18T23:42:32.367Z,-2.47
2023-03-18T23:44:58.998Z,-2.44
2023-03-18T23:47:25.805Z,-2.39
2023-03-18T23:49:53.667Z,-2.36
2023-03-18T23:52:20.571Z,-2.31
2023-03-18T23:54:48.382Z,-2.51
2023-03-18T23:57:14.986Z,-2.65
2023-03-18T23:59:42.565Z,-2.58
